METAR Data

Data at: 1856 UTC 21 Nov 2018

METAR for:KMQE (Milton/Blue Hills Ob, MA, US)
Text:KMQE 211756Z AUTO 22016G24KT 03/M04 A2984 RMK AO1 SLP122 T00281039 10028 21022 56036
Temperature: 2.8°C ( 37°F)
Dewpoint: -3.9°C ( 25°F) [RH = 61%]
Pressure (altimeter):29.84 inches Hg (1010.6 mb) [Sea level pressure: 1012.2 mb]
Winds:from the SW (220 degrees) at 18 MPH (16 knots; 8.2 m/s) gusting to 28 MPH (24 knots; 12.3 m/s)
QC Flag:automated observation with no human augmentation